sensor_id;sensor_type;location;lat;lon;timestamp;P1;durP1;ratioP1;P2;durP2;ratioP2
74867;SDS011;63419;42.262;12.210;2022-10-16T00:01:43;9.27;;;3.17;;
74867;SDS011;63419;42.262;12.210;2022-10-16T00:06:39;13.82;;;3.65;;
74867;SDS011;63419;42.262;12.210;2022-10-16T00:09:06;9.68;;;3.75;;
74867;SDS011;63419;42.262;12.210;2022-10-16T00:11:37;9.82;;;3.40;;
74867;SDS011;63419;42.262;12.210;2022-10-16T00:14:08;10.65;;;3.47;;
74867;SDS011;63419;42.262;12.210;2022-10-16T00:16:40;10.63;;;2.80;;
74867;SDS011;63419;42.262;12.210;2022-10-16T00:19:08;14.02;;;3.78;;
74867;SDS011;63419;42.262;12.210;2022-10-16T00:21:38;8.75;;;3.53;;
74867;SDS011;63419;42.262;12.210;2022-10-16T00:24:06;11.73;;;4.50;;
74867;SDS011;63419;42.262;12.210;2022-10-16T00:26:36;10.25;;;4.32;;
74867;SDS011;63419;42.262;12.210;2022-10-16T00:29:05;15.43;;;4.65;;
74867;SDS011;63419;42.262;12.210;2022-10-16T00:31:34;12.38;;;4.47;;
74867;SDS011;63419;42.262;12.210;2022-10-16T00:34:02;11.35;;;4.40;;
74867;SDS011;63419;42.262;12.210;2022-10-16T00:36:29;11.48;;;4.53;;
74867;SDS011;63419;42.262;12.210;2022-10-16T00:38:59;15.05;;;4.65;;
74867;SDS011;63419;42.262;12.210;2022-10-16T00:41:28;10.80;;;4.32;;
74867;SDS011;63419;42.262;12.210;2022-10-16T00:43:57;9.80;;;3.83;;
74867;SDS011;63419;42.262;12.210;2022-10-16T00:46:50;10.68;;;3.72;;
74867;SDS011;63419;42.262;12.210;2022-10-16T00:49:18;10.75;;;3.75;;
74867;SDS011;63419;42.262;12.210;2022-10-16T00:51:50;11.88;;;3.30;;
74867;SDS011;63419;42.262;12.210;2022-10-16T00:54:24;10.85;;;3.00;;
74867;SDS011;63419;42.262;12.210;2022-10-16T00:56:57;9.98;;;2.65;;
74867;SDS011;63419;42.262;12.210;2022-10-16T00:59:30;9.27;;;3.05;;
74867;SDS011;63419;42.262;12.210;2022-10-16T01:02:07;11.50;;;4.32;;
74867;SDS011;63419;42.262;12.210;2022-10-16T01:04:43;10.38;;;3.17;;
74867;SDS011;63419;42.262;12.210;2022-10-16T01:12:52;11.07;;;3.40;;
74867;SDS011;63419;42.262;12.210;2022-10-16T01:15:45;9.70;;;3.83;;
74867;SDS011;63419;42.262;12.210;2022-10-16T01:24:12;10.82;;;3.03;;
74867;SDS011;63419;42.262;12.210;2022-10-16T01:30:15;9.32;;;3.20;;
74867;SDS011;63419;42.262;12.210;2022-10-16T01:32:56;11.48;;;3.97;;
74867;SDS011;63419;42.262;12.210;2022-10-16T01:35:51;11.57;;;3.58;;
74867;SDS011;63419;42.262;12.210;2022-10-16T01:38:33;11.02;;;3.47;;
74867;SDS011;63419;42.262;12.210;2022-10-16T01:41:12;9.25;;;3.22;;
74867;SDS011;63419;42.262;12.210;2022-10-16T01:46:28;10.98;;;3.70;;
74867;SDS011;63419;42.262;12.210;2022-10-16T01:49:00;8.30;;;3.22;;
74867;SDS011;63419;42.262;12.210;2022-10-16T01:51:30;12.45;;;4.03;;
74867;SDS011;63419;42.262;12.210;2022-10-16T01:54:00;10.10;;;3.78;;
74867;SDS011;63419;42.262;12.210;2022-10-16T01:56:28;12.32;;;4.65;;
74867;SDS011;63419;42.262;12.210;2022-10-16T01:59:09;12.85;;;4.18;;
74867;SDS011;63419;42.262;12.210;2022-10-16T02:01:45;18.67;;;4.32;;
74867;SDS011;63419;42.262;12.210;2022-10-16T02:04:23;11.73;;;4.80;;
74867;SDS011;63419;42.262;12.210;2022-10-16T02:09:30;19.75;;;4.65;;
74867;SDS011;63419;42.262;12.210;2022-10-16T02:12:07;24.55;;;5.65;;
74867;SDS011;63419;42.262;12.210;2022-10-16T02:15:01;18.90;;;5.20;;
74867;SDS011;63419;42.262;12.210;2022-10-16T02:17:29;24.88;;;5.05;;
74867;SDS011;63419;42.262;12.210;2022-10-16T02:19:58;12.63;;;4.20;;
74867;SDS011;63419;42.262;12.210;2022-10-16T02:22:38;15.93;;;4.70;;
74867;SDS011;63419;42.262;12.210;2022-10-16T02:28:28;21.33;;;5.95;;
74867;SDS011;63419;42.262;12.210;2022-10-16T02:31:16;39.70;;;5.00;;
74867;SDS011;63419;42.262;12.210;2022-10-16T02:33:54;41.22;;;4.75;;
74867;SDS011;63419;42.262;12.210;2022-10-16T02:36:32;41.33;;;6.15;;
74867;SDS011;63419;42.262;12.210;2022-10-16T02:39:03;19.00;;;4.60;;
74867;SDS011;63419;42.262;12.210;2022-10-16T02:41:36;17.88;;;5.65;;
74867;SDS011;63419;42.262;12.210;2022-10-16T02:44:03;49.33;;;6.15;;
74867;SDS011;63419;42.262;12.210;2022-10-16T02:46:34;48.03;;;4.55;;
74867;SDS011;63419;42.262;12.210;2022-10-16T02:49:04;12.60;;;2.78;;
74867;SDS011;63419;42.262;12.210;2022-10-16T02:51:37;16.98;;;4.10;;
74867;SDS011;63419;42.262;12.210;2022-10-16T02:54:07;35.90;;;4.10;;
74867;SDS011;63419;42.262;12.210;2022-10-16T02:56:38;10.82;;;3.75;;
74867;SDS011;63419;42.262;12.210;2022-10-16T03:01:33;9.77;;;3.88;;
74867;SDS011;63419;42.262;12.210;2022-10-16T03:04:04;9.85;;;3.83;;
74867;SDS011;63419;42.262;12.210;2022-10-16T03:09:02;9.68;;;4.40;;
74867;SDS011;63419;42.262;12.210;2022-10-16T03:11:32;10.02;;;3.60;;
74867;SDS011;63419;42.262;12.210;2022-10-16T03:13:59;12.48;;;3.95;;
74867;SDS011;63419;42.262;12.210;2022-10-16T03:16:29;9.15;;;4.07;;
74867;SDS011;63419;42.262;12.210;2022-10-16T03:18:57;8.07;;;3.40;;
74867;SDS011;63419;42.262;12.210;2022-10-16T03:23:58;8.88;;;3.53;;
74867;SDS011;63419;42.262;12.210;2022-10-16T03:26:29;8.63;;;3.08;;
74867;SDS011;63419;42.262;12.210;2022-10-16T03:28:57;10.55;;;5.07;;
74867;SDS011;63419;42.262;12.210;2022-10-16T03:31:27;9.32;;;3.75;;
74867;SDS011;63419;42.262;12.210;2022-10-16T03:33:54;30.08;;;4.05;;
74867;SDS011;63419;42.262;12.210;2022-10-16T03:36:22;12.82;;;4.95;;
74867;SDS011;63419;42.262;12.210;2022-10-16T03:38:50;12.52;;;4.28;;
74867;SDS011;63419;42.262;12.210;2022-10-16T03:43:49;13.50;;;3.78;;
74867;SDS011;63419;42.262;12.210;2022-10-16T03:46:17;11.48;;;3.88;;
74867;SDS011;63419;42.262;12.210;2022-10-16T03:48:45;11.70;;;4.00;;
74867;SDS011;63419;42.262;12.210;2022-10-16T03:51:13;8.82;;;4.07;;
74867;SDS011;63419;42.262;12.210;2022-10-16T03:53:42;10.43;;;4.78;;
74867;SDS011;63419;42.262;12.210;2022-10-16T03:56:10;10.65;;;3.92;;
74867;SDS011;63419;42.262;12.210;2022-10-16T03:58:59;9.30;;;4.28;;
74867;SDS011;63419;42.262;12.210;2022-10-16T04:01:27;12.55;;;4.78;;
74867;SDS011;63419;42.262;12.210;2022-10-16T04:03:55;13.77;;;4.38;;
74867;SDS011;63419;42.262;12.210;2022-10-16T04:06:23;8.77;;;4.43;;
74867;SDS011;63419;42.262;12.210;2022-10-16T04:08:51;11.10;;;4.63;;
74867;SDS011;63419;42.262;12.210;2022-10-16T04:11:21;8.52;;;4.00;;
74867;SDS011;63419;42.262;12.210;2022-10-16T04:13:49;10.50;;;3.72;;
74867;SDS011;63419;42.262;12.210;2022-10-16T04:16:17;13.20;;;3.97;;
74867;SDS011;63419;42.262;12.210;2022-10-16T04:18:45;9.32;;;3.92;;
74867;SDS011;63419;42.262;12.210;2022-10-16T04:21:14;9.60;;;3.90;;
74867;SDS011;63419;42.262;12.210;2022-10-16T04:23:42;8.18;;;3.70;;
74867;SDS011;63419;42.262;12.210;2022-10-16T04:26:10;10.70;;;4.05;;
74867;SDS011;63419;42.262;12.210;2022-10-16T04:28:50;11.32;;;4.55;;
74867;SDS011;63419;42.262;12.210;2022-10-16T04:31:18;11.60;;;3.63;;
74867;SDS011;63419;42.262;12.210;2022-10-16T04:33:47;8.88;;;3.50;;
74867;SDS011;63419;42.262;12.210;2022-10-16T04:36:18;10.40;;;3.85;;
74867;SDS011;63419;42.262;12.210;2022-10-16T04:38:54;10.57;;;3.95;;
74867;SDS011;63419;42.262;12.210;2022-10-16T04:41:23;12.63;;;4.13;;
74867;SDS011;63419;42.262;12.210;2022-10-16T04:43:54;11.95;;;4.50;;
74867;SDS011;63419;42.262;12.210;2022-10-16T04:46:21;10.13;;;4.47;;
74867;SDS011;63419;42.262;12.210;2022-10-16T04:48:50;8.05;;;3.60;;
74867;SDS011;63419;42.262;12.210;2022-10-16T04:51:18;9.80;;;4.20;;
74867;SDS011;63419;42.262;12.210;2022-10-16T04:53:49;10.27;;;4.57;;
74867;SDS011;63419;42.262;12.210;2022-10-16T04:56:16;9.38;;;4.20;;
74867;SDS011;63419;42.262;12.210;2022-10-16T04:58:44;9.02;;;3.78;;
74867;SDS011;63419;42.262;12.210;2022-10-16T05:01:15;12.30;;;4.22;;
74867;SDS011;63419;42.262;12.210;2022-10-16T05:03:44;11.90;;;4.53;;
74867;SDS011;63419;42.262;12.210;2022-10-16T05:06:13;10.77;;;4.72;;
74867;SDS011;63419;42.262;12.210;2022-10-16T05:08:42;9.45;;;4.22;;
74867;SDS011;63419;42.262;12.210;2022-10-16T05:11:10;9.13;;;3.58;;
74867;SDS011;63419;42.262;12.210;2022-10-16T05:16:08;12.18;;;4.25;;
74867;SDS011;63419;42.262;12.210;2022-10-16T05:18:40;13.05;;;5.05;;
74867;SDS011;63419;42.262;12.210;2022-10-16T05:21:12;11.48;;;4.85;;
74867;SDS011;63419;42.262;12.210;2022-10-16T05:23:43;10.10;;;4.45;;
74867;SDS011;63419;42.262;12.210;2022-10-16T05:26:12;8.27;;;3.72;;
74867;SDS011;63419;42.262;12.210;2022-10-16T05:28:40;10.10;;;4.25;;
74867;SDS011;63419;42.262;12.210;2022-10-16T05:33:39;9.57;;;4.68;;
74867;SDS011;63419;42.262;12.210;2022-10-16T05:36:09;12.27;;;5.10;;
74867;SDS011;63419;42.262;12.210;2022-10-16T05:38:38;14.15;;;5.00;;
74867;SDS011;63419;42.262;12.210;2022-10-16T05:41:06;19.70;;;5.07;;
74867;SDS011;63419;42.262;12.210;2022-10-16T05:43:34;10.00;;;3.25;;
74867;SDS011;63419;42.262;12.210;2022-10-16T05:46:05;7.85;;;3.30;;
74867;SDS011;63419;42.262;12.210;2022-10-16T05:48:34;10.80;;;3.88;;
74867;SDS011;63419;42.262;12.210;2022-10-16T05:51:05;8.60;;;3.22;;
74867;SDS011;63419;42.262;12.210;2022-10-16T05:53:36;9.88;;;3.10;;
74867;SDS011;63419;42.262;12.210;2022-10-16T05:56:10;11.50;;;3.83;;
74867;SDS011;63419;42.262;12.210;2022-10-16T05:58:42;10.10;;;3.55;;
74867;SDS011;63419;42.262;12.210;2022-10-16T06:01:13;7.00;;;2.67;;
74867;SDS011;63419;42.262;12.210;2022-10-16T06:03:43;9.80;;;3.33;;
74867;SDS011;63419;42.262;12.210;2022-10-16T06:06:13;8.55;;;3.33;;
74867;SDS011;63419;42.262;12.210;2022-10-16T06:08:43;8.55;;;3.38;;
74867;SDS011;63419;42.262;12.210;2022-10-16T06:11:16;8.55;;;3.50;;
74867;SDS011;63419;42.262;12.210;2022-10-16T06:13:51;8.18;;;3.17;;
74867;SDS011;63419;42.262;12.210;2022-10-16T06:16:31;10.88;;;3.22;;
74867;SDS011;63419;42.262;12.210;2022-10-16T06:19:10;9.48;;;3.22;;
74867;SDS011;63419;42.262;12.210;2022-10-16T06:21:39;8.10;;;3.50;;
74867;SDS011;63419;42.262;12.210;2022-10-16T06:24:10;11.35;;;4.45;;
74867;SDS011;63419;42.262;12.210;2022-10-16T06:26:38;8.45;;;3.92;;
74867;SDS011;63419;42.262;12.210;2022-10-16T06:29:08;8.38;;;3.90;;
74867;SDS011;63419;42.262;12.210;2022-10-16T06:31:37;8.40;;;3.53;;
74867;SDS011;63419;42.262;12.210;2022-10-16T06:36:36;6.70;;;2.70;;
74867;SDS011;63419;42.262;12.210;2022-10-16T06:39:06;8.68;;;2.85;;
74867;SDS011;63419;42.262;12.210;2022-10-16T06:41:36;9.98;;;3.55;;
74867;SDS011;63419;42.262;12.210;2022-10-16T06:44:08;9.50;;;3.35;;
74867;SDS011;63419;42.262;12.210;2022-10-16T06:46:39;9.95;;;3.85;;
74867;SDS011;63419;42.262;12.210;2022-10-16T06:49:08;10.73;;;3.72;;
74867;SDS011;63419;42.262;12.210;2022-10-16T06:51:37;11.75;;;3.17;;
74867;SDS011;63419;42.262;12.210;2022-10-16T06:54:09;13.57;;;3.60;;
74867;SDS011;63419;42.262;12.210;2022-10-16T06:56:37;13.52;;;3.50;;
74867;SDS011;63419;42.262;12.210;2022-10-16T06:59:21;13.48;;;3.88;;
74867;SDS011;63419;42.262;12.210;2022-10-16T07:01:51;9.73;;;3.75;;
74867;SDS011;63419;42.262;12.210;2022-10-16T07:04:20;11.77;;;3.63;;
74867;SDS011;63419;42.262;12.210;2022-10-16T07:06:49;11.77;;;4.20;;
74867;SDS011;63419;42.262;12.210;2022-10-16T07:09:22;15.68;;;4.72;;
74867;SDS011;63419;42.262;12.210;2022-10-16T07:11:51;13.25;;;5.10;;
74867;SDS011;63419;42.262;12.210;2022-10-16T07:14:21;10.35;;;3.50;;
74867;SDS011;63419;42.262;12.210;2022-10-16T07:16:48;12.43;;;4.45;;
74867;SDS011;63419;42.262;12.210;2022-10-16T07:19:16;12.93;;;4.07;;
74867;SDS011;63419;42.262;12.210;2022-10-16T07:21:47;11.95;;;4.53;;
74867;SDS011;63419;42.262;12.210;2022-10-16T07:24:15;10.80;;;4.85;;
74867;SDS011;63419;42.262;12.210;2022-10-16T07:26:48;14.90;;;6.10;;
74867;SDS011;63419;42.262;12.210;2022-10-16T07:29:20;12.35;;;4.80;;
74867;SDS011;63419;42.262;12.210;2022-10-16T07:31:48;13.02;;;5.07;;
74867;SDS011;63419;42.262;12.210;2022-10-16T07:34:17;13.32;;;5.00;;
74867;SDS011;63419;42.262;12.210;2022-10-16T07:36:49;10.88;;;4.63;;
74867;SDS011;63419;42.262;12.210;2022-10-16T07:39:17;14.05;;;5.50;;
74867;SDS011;63419;42.262;12.210;2022-10-16T07:41:46;11.40;;;5.40;;
74867;SDS011;63419;42.262;12.210;2022-10-16T07:44:16;12.10;;;5.07;;
74867;SDS011;63419;42.262;12.210;2022-10-16T07:46:45;13.57;;;5.57;;
74867;SDS011;63419;42.262;12.210;2022-10-16T07:49:14;11.45;;;4.85;;
74867;SDS011;63419;42.262;12.210;2022-10-16T07:51:42;12.07;;;5.03;;
74867;SDS011;63419;42.262;12.210;2022-10-16T07:54:11;16.13;;;5.68;;
74867;SDS011;63419;42.262;12.210;2022-10-16T07:56:40;12.73;;;5.60;;
74867;SDS011;63419;42.262;12.210;2022-10-16T07:59:11;23.88;;;5.32;;
74867;SDS011;63419;42.262;12.210;2022-10-16T08:01:39;16.73;;;5.70;;
74867;SDS011;63419;42.262;12.210;2022-10-16T08:04:07;15.98;;;4.70;;
74867;SDS011;63419;42.262;12.210;2022-10-16T08:06:37;13.85;;;6.18;;
74867;SDS011;63419;42.262;12.210;2022-10-16T08:09:10;12.32;;;5.10;;
74867;SDS011;63419;42.262;12.210;2022-10-16T08:11:39;10.32;;;4.82;;
74867;SDS011;63419;42.262;12.210;2022-10-16T08:14:06;13.27;;;4.50;;
74867;SDS011;63419;42.262;12.210;2022-10-16T08:16:34;7.72;;;4.22;;
74867;SDS011;63419;42.262;12.210;2022-10-16T08:19:04;9.65;;;3.53;;
74867;SDS011;63419;42.262;12.210;2022-10-16T08:21:32;10.35;;;3.53;;
74867;SDS011;63419;42.262;12.210;2022-10-16T08:24:00;7.20;;;3.17;;
74867;SDS011;63419;42.262;12.210;2022-10-16T08:26:27;12.50;;;3.47;;
74867;SDS011;63419;42.262;12.210;2022-10-16T08:29:00;5.22;;;2.30;;
74867;SDS011;63419;42.262;12.210;2022-10-16T08:31:27;8.63;;;2.20;;
74867;SDS011;63419;42.262;12.210;2022-10-16T08:33:58;4.95;;;1.88;;
74867;SDS011;63419;42.262;12.210;2022-10-16T08:36:28;7.57;;;2.30;;
74867;SDS011;63419;42.262;12.210;2022-10-16T08:38:58;8.55;;;1.92;;
74867;SDS011;63419;42.262;12.210;2022-10-16T08:47:18;7.80;;;2.20;;
74867;SDS011;63419;42.262;12.210;2022-10-16T08:50:08;6.65;;;2.03;;
74867;SDS011;63419;42.262;12.210;2022-10-16T08:52:40;5.97;;;2.17;;
74867;SDS011;63419;42.262;12.210;2022-10-16T08:55:33;5.07;;;1.50;;
74867;SDS011;63419;42.262;12.210;2022-10-16T08:58:13;5.07;;;1.70;;
74867;SDS011;63419;42.262;12.210;2022-10-16T09:00:58;5.40;;;1.23;;
74867;SDS011;63419;42.262;12.210;2022-10-16T09:09:01;3.92;;;0.77;;
74867;SDS011;63419;42.262;12.210;2022-10-16T09:23:10;5.57;;;1.10;;
74867;SDS011;63419;42.262;12.210;2022-10-16T09:25:57;3.20;;;0.70;;
74867;SDS011;63419;42.262;12.210;2022-10-16T09:28:30;4.28;;;0.68;;
74867;SDS011;63419;42.262;12.210;2022-10-16T09:30:58;4.53;;;0.70;;
74867;SDS011;63419;42.262;12.210;2022-10-16T09:33:28;3.60;;;0.80;;
74867;SDS011;63419;42.262;12.210;2022-10-16T09:36:10;5.38;;;1.10;;
74867;SDS011;63419;42.262;12.210;2022-10-16T09:38:43;7.68;;;1.13;;
74867;SDS011;63419;42.262;12.210;2022-10-16T09:41:17;4.18;;;0.70;;
74867;SDS011;63419;42.262;12.210;2022-10-16T09:43:59;3.47;;;0.70;;
74867;SDS011;63419;42.262;12.210;2022-10-16T09:46:32;5.70;;;1.25;;
74867;SDS011;63419;42.262;12.210;2022-10-16T09:49:19;6.50;;;1.55;;
74867;SDS011;63419;42.262;12.210;2022-10-16T09:52:13;3.63;;;1.08;;
74867;SDS011;63419;42.262;12.210;2022-10-16T09:54:54;3.65;;;0.77;;
74867;SDS011;63419;42.262;12.210;2022-10-16T09:57:25;4.07;;;1.42;;
74867;SDS011;63419;42.262;12.210;2022-10-16T09:59:57;5.03;;;0.80;;
74867;SDS011;63419;42.262;12.210;2022-10-16T10:02:36;3.97;;;0.98;;
74867;SDS011;63419;42.262;12.210;2022-10-16T10:05:26;3.90;;;0.80;;
74867;SDS011;63419;42.262;12.210;2022-10-16T10:07:56;4.65;;;0.95;;
74867;SDS011;63419;42.262;12.210;2022-10-16T10:10:48;4.45;;;1.50;;
74867;SDS011;63419;42.262;12.210;2022-10-16T10:13:22;3.22;;;1.00;;
74867;SDS011;63419;42.262;12.210;2022-10-16T10:15:55;7.88;;;0.80;;
74867;SDS011;63419;42.262;12.210;2022-10-16T10:18:24;6.05;;;1.13;;
74867;SDS011;63419;42.262;12.210;2022-10-16T10:21:01;7.40;;;1.25;;
74867;SDS011;63419;42.262;12.210;2022-10-16T10:23:31;8.07;;;1.55;;
74867;SDS011;63419;42.262;12.210;2022-10-16T10:26:04;5.88;;;1.52;;
74867;SDS011;63419;42.262;12.210;2022-10-16T10:28:55;7.22;;;2.00;;
74867;SDS011;63419;42.262;12.210;2022-10-16T10:37:33;7.82;;;2.83;;
74867;SDS011;63419;42.262;12.210;2022-10-16T10:43:39;6.72;;;2.38;;
74867;SDS011;63419;42.262;12.210;2022-10-16T11:01:10;13.52;;;2.78;;
74867;SDS011;63419;42.262;12.210;2022-10-16T11:06:33;8.80;;;2.50;;
74867;SDS011;63419;42.262;12.210;2022-10-16T11:09:15;8.02;;;2.58;;
74867;SDS011;63419;42.262;12.210;2022-10-16T11:12:01;9.75;;;2.72;;
74867;SDS011;63419;42.262;12.210;2022-10-16T11:14:55;9.35;;;3.10;;
74867;SDS011;63419;42.262;12.210;2022-10-16T11:20:34;7.25;;;2.60;;
74867;SDS011;63419;42.262;12.210;2022-10-16T11:28:51;5.72;;;1.90;;
74867;SDS011;63419;42.262;12.210;2022-10-16T11:31:33;6.38;;;1.77;;
74867;SDS011;63419;42.262;12.210;2022-10-16T11:37:08;5.68;;;1.77;;
74867;SDS011;63419;42.262;12.210;2022-10-16T11:39:50;7.35;;;1.70;;
74867;SDS011;63419;42.262;12.210;2022-10-16T11:42:27;5.00;;;1.65;;
74867;SDS011;63419;42.262;12.210;2022-10-16T11:45:08;5.45;;;1.50;;
74867;SDS011;63419;42.262;12.210;2022-10-16T11:54:31;5.13;;;1.27;;
74867;SDS011;63419;42.262;12.210;2022-10-16T11:57:33;6.03;;;2.08;;
74867;SDS011;63419;42.262;12.210;2022-10-16T12:05:46;5.50;;;1.80;;
74867;SDS011;63419;42.262;12.210;2022-10-16T12:08:44;7.15;;;1.80;;
74867;SDS011;63419;42.262;12.210;2022-10-16T12:14:06;6.30;;;1.38;;
74867;SDS011;63419;42.262;12.210;2022-10-16T12:19:29;5.57;;;1.30;;
74867;SDS011;63419;42.262;12.210;2022-10-16T12:22:14;6.60;;;2.08;;
74867;SDS011;63419;42.262;12.210;2022-10-16T12:25:30;4.75;;;1.55;;
74867;SDS011;63419;42.262;12.210;2022-10-16T12:28:17;5.63;;;1.63;;
74867;SDS011;63419;42.262;12.210;2022-10-16T12:30:55;6.00;;;1.73;;
74867;SDS011;63419;42.262;12.210;2022-10-16T12:33:33;8.07;;;1.58;;
74867;SDS011;63419;42.262;12.210;2022-10-16T12:36:35;7.30;;;1.83;;
74867;SDS011;63419;42.262;12.210;2022-10-16T12:39:05;8.02;;;1.90;;
74867;SDS011;63419;42.262;12.210;2022-10-16T12:42:04;8.38;;;1.58;;
74867;SDS011;63419;42.262;12.210;2022-10-16T12:44:55;4.82;;;1.60;;
74867;SDS011;63419;42.262;12.210;2022-10-16T12:49:58;5.88;;;1.50;;
74867;SDS011;63419;42.262;12.210;2022-10-16T12:55:04;5.88;;;1.60;;
74867;SDS011;63419;42.262;12.210;2022-10-16T13:00:34;6.03;;;1.92;;
74867;SDS011;63419;42.262;12.210;2022-10-16T13:18:09;5.53;;;1.45;;
74867;SDS011;63419;42.262;12.210;2022-10-16T13:23:50;5.90;;;1.73;;
74867;SDS011;63419;42.262;12.210;2022-10-16T13:29:12;8.23;;;2.30;;
74867;SDS011;63419;42.262;12.210;2022-10-16T13:31:41;6.30;;;1.95;;
74867;SDS011;63419;42.262;12.210;2022-10-16T13:34:12;6.70;;;1.45;;
74867;SDS011;63419;42.262;12.210;2022-10-16T13:36:48;6.82;;;1.60;;
74867;SDS011;63419;42.262;12.210;2022-10-16T13:39:25;5.50;;;1.23;;
74867;SDS011;63419;42.262;12.210;2022-10-16T13:44:43;5.03;;;1.50;;
74867;SDS011;63419;42.262;12.210;2022-10-16T13:47:18;3.85;;;1.08;;
74867;SDS011;63419;42.262;12.210;2022-10-16T13:52:31;5.28;;;1.30;;
74867;SDS011;63419;42.262;12.210;2022-10-16T13:54:59;3.75;;;0.75;;
74867;SDS011;63419;42.262;12.210;2022-10-16T13:57:28;5.00;;;1.00;;
74867;SDS011;63419;42.262;12.210;2022-10-16T13:59:56;5.95;;;1.00;;
74867;SDS011;63419;42.262;12.210;2022-10-16T14:02:29;3.10;;;1.00;;
74867;SDS011;63419;42.262;12.210;2022-10-16T14:05:08;4.32;;;1.25;;
74867;SDS011;63419;42.262;12.210;2022-10-16T14:07:41;5.65;;;0.90;;
74867;SDS011;63419;42.262;12.210;2022-10-16T14:10:23;6.85;;;1.60;;
74867;SDS011;63419;42.262;12.210;2022-10-16T14:12:55;4.13;;;1.20;;
74867;SDS011;63419;42.262;12.210;2022-10-16T14:15:34;7.20;;;1.30;;
74867;SDS011;63419;42.262;12.210;2022-10-16T14:18:04;5.15;;;1.15;;
74867;SDS011;63419;42.262;12.210;2022-10-16T14:20:33;5.45;;;1.35;;
74867;SDS011;63419;42.262;12.210;2022-10-16T14:23:03;5.15;;;1.40;;
74867;SDS011;63419;42.262;12.210;2022-10-16T14:25:47;5.80;;;1.45;;
74867;SDS011;63419;42.262;12.210;2022-10-16T14:28:22;3.83;;;1.02;;
74867;SDS011;63419;42.262;12.210;2022-10-16T14:38:40;5.80;;;0.75;;
74867;SDS011;63419;42.262;12.210;2022-10-16T14:41:14;6.35;;;0.77;;
74867;SDS011;63419;42.262;12.210;2022-10-16T14:43:49;5.70;;;1.02;;
74867;SDS011;63419;42.262;12.210;2022-10-16T14:46:22;5.13;;;0.60;;
74867;SDS011;63419;42.262;12.210;2022-10-16T14:51:38;4.70;;;0.90;;
74867;SDS011;63419;42.262;12.210;2022-10-16T14:54:14;4.75;;;1.45;;
74867;SDS011;63419;42.262;12.210;2022-10-16T14:56:53;3.65;;;1.00;;
74867;SDS011;63419;42.262;12.210;2022-10-16T15:02:13;4.65;;;1.10;;
74867;SDS011;63419;42.262;12.210;2022-10-16T15:04:58;6.20;;;1.00;;
74867;SDS011;63419;42.262;12.210;2022-10-16T15:07:54;5.00;;;0.90;;
74867;SDS011;63419;42.262;12.210;2022-10-16T15:10:25;4.57;;;1.20;;
74867;SDS011;63419;42.262;12.210;2022-10-16T15:12:55;6.00;;;0.93;;
74867;SDS011;63419;42.262;12.210;2022-10-16T15:18:10;6.63;;;1.30;;
74867;SDS011;63419;42.262;12.210;2022-10-16T15:20:38;6.53;;;1.77;;
74867;SDS011;63419;42.262;12.210;2022-10-16T15:23:13;6.35;;;1.45;;
74867;SDS011;63419;42.262;12.210;2022-10-16T15:25:45;13.35;;;2.08;;
74867;SDS011;63419;42.262;12.210;2022-10-16T15:28:18;5.07;;;2.00;;
74867;SDS011;63419;42.262;12.210;2022-10-16T15:30:52;7.50;;;1.38;;
74867;SDS011;63419;42.262;12.210;2022-10-16T15:33:26;5.22;;;1.30;;
74867;SDS011;63419;42.262;12.210;2022-10-16T15:36:07;7.05;;;1.92;;
74867;SDS011;63419;42.262;12.210;2022-10-16T15:38:36;8.68;;;1.85;;
74867;SDS011;63419;42.262;12.210;2022-10-16T15:41:03;9.48;;;1.60;;
74867;SDS011;63419;42.262;12.210;2022-10-16T15:43:30;6.13;;;1.73;;
74867;SDS011;63419;42.262;12.210;2022-10-16T15:46:01;11.20;;;1.92;;
74867;SDS011;63419;42.262;12.210;2022-10-16T15:48:37;5.55;;;1.67;;
74867;SDS011;63419;42.262;12.210;2022-10-16T15:51:05;5.70;;;1.55;;
74867;SDS011;63419;42.262;12.210;2022-10-16T15:53:35;4.43;;;1.38;;
74867;SDS011;63419;42.262;12.210;2022-10-16T15:56:06;5.32;;;1.75;;
74867;SDS011;63419;42.262;12.210;2022-10-16T15:58:35;4.85;;;1.30;;
74867;SDS011;63419;42.262;12.210;2022-10-16T16:01:03;5.93;;;1.75;;
74867;SDS011;63419;42.262;12.210;2022-10-16T16:03:32;5.50;;;1.33;;
74867;SDS011;63419;42.262;12.210;2022-10-16T16:06:03;4.65;;;1.45;;
74867;SDS011;63419;42.262;12.210;2022-10-16T16:08:36;11.98;;;2.78;;
74867;SDS011;63419;42.262;12.210;2022-10-16T16:11:05;7.80;;;1.73;;
74867;SDS011;63419;42.262;12.210;2022-10-16T16:13:37;7.47;;;1.75;;
74867;SDS011;63419;42.262;12.210;2022-10-16T16:16:10;9.88;;;2.08;;
74867;SDS011;63419;42.262;12.210;2022-10-16T16:18:42;7.25;;;1.70;;
74867;SDS011;63419;42.262;12.210;2022-10-16T16:21:12;7.82;;;1.80;;
74867;SDS011;63419;42.262;12.210;2022-10-16T16:23:41;5.55;;;1.30;;
74867;SDS011;63419;42.262;12.210;2022-10-16T16:26:11;9.50;;;1.40;;
74867;SDS011;63419;42.262;12.210;2022-10-16T16:28:53;4.00;;;1.25;;
74867;SDS011;63419;42.262;12.210;2022-10-16T16:31:26;6.28;;;1.30;;
74867;SDS011;63419;42.262;12.210;2022-10-16T16:33:58;5.97;;;1.13;;
74867;SDS011;63419;42.262;12.210;2022-10-16T16:36:25;11.77;;;4.35;;
74867;SDS011;63419;42.262;12.210;2022-10-16T16:38:53;13.30;;;5.15;;
74867;SDS011;63419;42.262;12.210;2022-10-16T16:41:21;10.07;;;4.05;;
74867;SDS011;63419;42.262;12.210;2022-10-16T16:43:52;11.35;;;3.08;;
74867;SDS011;63419;42.262;12.210;2022-10-16T16:46:23;12.60;;;2.50;;
74867;SDS011;63419;42.262;12.210;2022-10-16T16:48:52;10.80;;;3.00;;
74867;SDS011;63419;42.262;12.210;2022-10-16T16:51:24;9.25;;;3.13;;
74867;SDS011;63419;42.262;12.210;2022-10-16T16:53:52;10.07;;;3.10;;
74867;SDS011;63419;42.262;12.210;2022-10-16T16:56:21;14.05;;;4.35;;
74867;SDS011;63419;42.262;12.210;2022-10-16T16:58:50;14.35;;;5.45;;
74867;SDS011;63419;42.262;12.210;2022-10-16T17:01:21;13.57;;;4.75;;
74867;SDS011;63419;42.262;12.210;2022-10-16T17:03:55;16.80;;;4.80;;
74867;SDS011;63419;42.262;12.210;2022-10-16T17:06:28;18.48;;;7.53;;
74867;SDS011;63419;42.262;12.210;2022-10-16T17:08:56;13.63;;;4.63;;
74867;SDS011;63419;42.262;12.210;2022-10-16T17:11:26;11.15;;;4.25;;
74867;SDS011;63419;42.262;12.210;2022-10-16T17:13:58;6.70;;;2.25;;
74867;SDS011;63419;42.262;12.210;2022-10-16T17:16:27;10.60;;;2.30;;
74867;SDS011;63419;42.262;12.210;2022-10-16T17:19:04;6.18;;;1.58;;
74867;SDS011;63419;42.262;12.210;2022-10-16T17:21:39;6.10;;;1.05;;
74867;SDS011;63419;42.262;12.210;2022-10-16T17:24:08;5.38;;;0.90;;
74867;SDS011;63419;42.262;12.210;2022-10-16T17:26:39;4.13;;;1.35;;
74867;SDS011;63419;42.262;12.210;2022-10-16T17:29:22;4.65;;;0.90;;
74867;SDS011;63419;42.262;12.210;2022-10-16T17:31:49;4.13;;;0.90;;
74867;SDS011;63419;42.262;12.210;2022-10-16T17:34:22;4.97;;;1.40;;
74867;SDS011;63419;42.262;12.210;2022-10-16T17:36:50;4.97;;;1.88;;
74867;SDS011;63419;42.262;12.210;2022-10-16T17:39:19;4.32;;;1.30;;
74867;SDS011;63419;42.262;12.210;2022-10-16T17:41:49;6.10;;;1.30;;
74867;SDS011;63419;42.262;12.210;2022-10-16T17:44:16;7.43;;;1.40;;
74867;SDS011;63419;42.262;12.210;2022-10-16T17:46:49;6.57;;;1.35;;
74867;SDS011;63419;42.262;12.210;2022-10-16T17:49:19;3.97;;;1.55;;
74867;SDS011;63419;42.262;12.210;2022-10-16T17:51:55;5.78;;;1.45;;
74867;SDS011;63419;42.262;12.210;2022-10-16T17:54:28;7.63;;;1.45;;
74867;SDS011;63419;42.262;12.210;2022-10-16T17:56:56;7.00;;;1.52;;